sensor_id;sensor_type;location;lat;lon;timestamp;pressure;altitude;pressure_sealevel;temperature;humidity
62710;BME280;48770;51.624;5.886;2023-03-26T00:01:46;100570.66;;;21.50;40.30
62710;BME280;48770;51.624;5.886;2023-03-26T00:04:14;100568.25;;;21.49;40.20
62710;BME280;48770;51.624;5.886;2023-03-26T00:06:44;100565.03;;;21.47;40.35
62710;BME280;48770;51.624;5.886;2023-03-26T00:09:14;100570.16;;;21.45;40.57
62710;BME280;48770;51.624;5.886;2023-03-26T00:11:40;100566.91;;;21.43;40.49
62710;BME280;48770;51.624;5.886;2023-03-26T00:14:07;100563.34;;;21.42;40.38
62710;BME280;48770;51.624;5.886;2023-03-26T00:16:34;100566.47;;;21.41;40.50
62710;BME280;48770;51.624;5.886;2023-03-26T00:19:00;100557.69;;;21.39;40.14
62710;BME280;48770;51.624;5.886;2023-03-26T00:21:28;100568.03;;;21.38;40.08
62710;BME280;48770;51.624;5.886;2023-03-26T00:23:55;100562.81;;;21.37;40.40
62710;BME280;48770;51.624;5.886;2023-03-26T00:26:22;100569.91;;;21.34;40.20
62710;BME280;48770;51.624;5.886;2023-03-26T00:28:48;100565.50;;;21.33;40.43
62710;BME280;48770;51.624;5.886;2023-03-26T00:31:15;100560.28;;;21.32;40.12
62710;BME280;48770;51.624;5.886;2023-03-26T00:33:42;100563.44;;;21.30;40.50
62710;BME280;48770;51.624;5.886;2023-03-26T00:36:10;100559.84;;;21.30;39.88
62710;BME280;48770;51.624;5.886;2023-03-26T00:38:39;100557.44;;;21.28;40.08
62710;BME280;48770;51.624;5.886;2023-03-26T00:41:10;100556.19;;;21.26;40.45
62710;BME280;48770;51.624;5.886;2023-03-26T00:43:41;100557.34;;;21.24;40.39
62710;BME280;48770;51.624;5.886;2023-03-26T00:46:07;100553.31;;;21.22;40.41
62710;BME280;48770;51.624;5.886;2023-03-26T00:48:32;100546.94;;;21.21;40.08
62710;BME280;48770;51.624;5.886;2023-03-26T00:50:58;100542.53;;;21.20;40.35
62710;BME280;48770;51.624;5.886;2023-03-26T00:53:24;100533.41;;;21.20;40.16
62710;BME280;48770;51.624;5.886;2023-03-26T00:55:49;100531.78;;;21.19;40.28
62710;BME280;48770;51.624;5.886;2023-03-26T00:58:14;100529.00;;;21.19;40.22
62710;BME280;48770;51.624;5.886;2023-03-26T01:00:57;100528.94;;;21.15;40.33
62710;BME280;48770;51.624;5.886;2023-03-26T01:03:24;100527.75;;;21.16;40.27
62710;BME280;48770;51.624;5.886;2023-03-26T01:06:04;100532.50;;;21.16;40.31
62710;BME280;48770;51.624;5.886;2023-03-26T01:08:43;100522.47;;;21.11;40.34
62710;BME280;48770;51.624;5.886;2023-03-26T01:11:14;100521.31;;;21.12;40.60
62710;BME280;48770;51.624;5.886;2023-03-26T01:13:45;100516.56;;;21.13;40.21
62710;BME280;48770;51.624;5.886;2023-03-26T01:16:23;100518.09;;;21.10;40.46
62710;BME280;48770;51.624;5.886;2023-03-26T01:18:49;100520.88;;;21.10;40.74
62710;BME280;48770;51.624;5.886;2023-03-26T01:21:20;100520.06;;;21.10;40.41
62710;BME280;48770;51.624;5.886;2023-03-26T01:28:58;100494.94;;;21.06;40.23
62710;BME280;48770;51.624;5.886;2023-03-26T01:31:50;100494.94;;;21.06;40.39
62710;BME280;48770;51.624;5.886;2023-03-26T01:37:20;100486.88;;;21.01;40.31
62710;BME280;48770;51.624;5.886;2023-03-26T01:40:08;100477.28;;;20.99;40.35
62710;BME280;48770;51.624;5.886;2023-03-26T01:42:46;100484.81;;;20.98;40.62
62710;BME280;48770;51.624;5.886;2023-03-26T01:45:21;100467.72;;;20.96;40.24
62710;BME280;48770;51.624;5.886;2023-03-26T01:47:48;100467.34;;;20.98;40.41
62710;BME280;48770;51.624;5.886;2023-03-26T01:50:14;100455.44;;;20.97;40.22
62710;BME280;48770;51.624;5.886;2023-03-26T01:52:40;100453.81;;;20.96;40.48
62710;BME280;48770;51.624;5.886;2023-03-26T01:55:06;100451.03;;;20.96;40.21
62710;BME280;48770;51.624;5.886;2023-03-26T02:03:00;100445.03;;;20.94;40.32
62710;BME280;48770;51.624;5.886;2023-03-26T02:05:33;100452.94;;;20.92;40.23
62710;BME280;48770;51.624;5.886;2023-03-26T02:08:07;100447.69;;;20.71;40.59
62710;BME280;48770;51.624;5.886;2023-03-26T02:10:43;100441.56;;;20.81;40.37
62710;BME280;48770;51.624;5.886;2023-03-26T02:13:10;100436.78;;;20.62;40.86
62710;BME280;48770;51.624;5.886;2023-03-26T02:15:36;100441.03;;;20.76;40.59
62710;BME280;48770;51.624;5.886;2023-03-26T02:18:01;100435.19;;;20.81;40.49
62710;BME280;48770;51.624;5.886;2023-03-26T02:20:28;100426.53;;;20.82;40.56
62710;BME280;48770;51.624;5.886;2023-03-26T02:22:55;100428.13;;;20.83;40.18
62710;BME280;48770;51.624;5.886;2023-03-26T02:25:21;100426.16;;;20.84;40.39
62710;BME280;48770;51.624;5.886;2023-03-26T02:27:48;100420.59;;;20.84;40.31
62710;BME280;48770;51.624;5.886;2023-03-26T02:30:17;100420.59;;;20.84;40.42
62710;BME280;48770;51.624;5.886;2023-03-26T02:32:43;100421.78;;;20.83;40.29
62710;BME280;48770;51.624;5.886;2023-03-26T02:35:10;100412.25;;;20.84;40.17
62710;BME280;48770;51.624;5.886;2023-03-26T02:37:36;100403.50;;;20.82;40.23
62710;BME280;48770;51.624;5.886;2023-03-26T02:40:02;100405.91;;;20.83;40.28
62710;BME280;48770;51.624;5.886;2023-03-26T02:42:30;100400.72;;;20.82;40.29
62710;BME280;48770;51.624;5.886;2023-03-26T02:44:55;100389.22;;;20.83;40.23
62710;BME280;48770;51.624;5.886;2023-03-26T02:47:20;100390.72;;;20.81;40.16
62710;BME280;48770;51.624;5.886;2023-03-26T02:49:46;100385.53;;;20.79;40.26
62710;BME280;48770;51.624;5.886;2023-03-26T02:52:11;100376.84;;;20.81;40.15
62710;BME280;48770;51.624;5.886;2023-03-26T02:54:37;100383.56;;;20.80;40.08
62710;BME280;48770;51.624;5.886;2023-03-26T02:57:02;100378.00;;;20.80;40.23
62710;BME280;48770;51.624;5.886;2023-03-26T02:59:27;100378.81;;;20.80;40.03
62710;BME280;48770;51.624;5.886;2023-03-26T03:01:53;100372.09;;;20.81;40.29
62710;BME280;48770;51.624;5.886;2023-03-26T03:04:18;100366.53;;;20.81;40.05
62710;BME280;48770;51.624;5.886;2023-03-26T03:06:44;100367.69;;;20.80;40.29
62710;BME280;48770;51.624;5.886;2023-03-26T03:09:10;100368.16;;;20.82;40.04
62710;BME280;48770;51.624;5.886;2023-03-26T03:11:39;100363.06;;;20.84;40.31
62710;BME280;48770;51.624;5.886;2023-03-26T03:14:05;100361.88;;;20.85;40.10
62710;BME280;48770;51.624;5.886;2023-03-26T03:16:31;100355.16;;;20.86;40.27
62710;BME280;48770;51.624;5.886;2023-03-26T03:18:56;100348.44;;;20.87;40.24
62710;BME280;48770;51.624;5.886;2023-03-26T03:21:24;100346.88;;;20.90;39.85
62710;BME280;48770;51.624;5.886;2023-03-26T03:23:51;100344.09;;;20.90;40.19
62710;BME280;48770;51.624;5.886;2023-03-26T03:26:18;100347.31;;;20.92;40.09
62710;BME280;48770;51.624;5.886;2023-03-26T03:28:48;100346.97;;;20.93;39.96
62710;BME280;48770;51.624;5.886;2023-03-26T03:31:14;100339.44;;;20.94;40.08
62710;BME280;48770;51.624;5.886;2023-03-26T03:33:40;100335.47;;;20.95;40.04
62710;BME280;48770;51.624;5.886;2023-03-26T03:36:08;100336.72;;;20.98;40.13
62710;BME280;48770;51.624;5.886;2023-03-26T03:38:39;100329.19;;;20.98;40.08
62710;BME280;48770;51.624;5.886;2023-03-26T03:41:05;100322.44;;;20.99;39.97
62710;BME280;48770;51.624;5.886;2023-03-26T03:43:31;100328.00;;;20.99;40.30
62710;BME280;48770;51.624;5.886;2023-03-26T03:45:57;100321.28;;;21.00;40.06
62710;BME280;48770;51.624;5.886;2023-03-26T03:48:23;100326.47;;;21.02;39.94
62710;BME280;48770;51.624;5.886;2023-03-26T03:50:48;100325.31;;;21.03;39.69
62710;BME280;48770;51.624;5.886;2023-03-26T03:53:13;100318.94;;;21.02;39.72
62710;BME280;48770;51.624;5.886;2023-03-26T03:55:40;100313.81;;;21.04;40.25
62710;BME280;48770;51.624;5.886;2023-03-26T03:58:06;100311.03;;;21.04;39.94
62710;BME280;48770;51.624;5.886;2023-03-26T04:00:33;100315.06;;;21.07;39.93
62710;BME280;48770;51.624;5.886;2023-03-26T04:02:58;100299.19;;;21.07;39.86
62710;BME280;48770;51.624;5.886;2023-03-26T04:05:30;100303.59;;;21.08;39.87
62710;BME280;48770;51.624;5.886;2023-03-26T04:07:55;100300.44;;;21.10;39.79
62710;BME280;48770;51.624;5.886;2023-03-26T04:10:21;100296.50;;;21.11;39.83
62710;BME280;48770;51.624;5.886;2023-03-26T04:12:46;100296.50;;;21.11;39.66
62710;BME280;48770;51.624;5.886;2023-03-26T04:15:11;100292.53;;;21.12;39.51
62710;BME280;48770;51.624;5.886;2023-03-26T04:17:36;100286.97;;;21.12;39.54
62710;BME280;48770;51.624;5.886;2023-03-26T04:20:07;100286.63;;;21.13;39.81
62710;BME280;48770;51.624;5.886;2023-03-26T04:22:32;100279.88;;;21.14;39.86
62710;BME280;48770;51.624;5.886;2023-03-26T04:24:58;100280.69;;;21.15;39.59
62710;BME280;48770;51.624;5.886;2023-03-26T04:27:29;100272.78;;;21.17;39.80
62710;BME280;48770;51.624;5.886;2023-03-26T04:29:56;100270.00;;;21.17;39.66
62710;BME280;48770;51.624;5.886;2023-03-26T04:32:25;100264.06;;;21.18;39.64
62710;BME280;48770;51.624;5.886;2023-03-26T04:34:56;100265.69;;;21.19;39.67
62710;BME280;48770;51.624;5.886;2023-03-26T04:37:28;100268.47;;;21.19;39.52
62710;BME280;48770;51.624;5.886;2023-03-26T04:39:58;100262.47;;;21.17;39.32
62710;BME280;48770;51.624;5.886;2023-03-26T04:42:24;100254.56;;;21.19;39.65
62710;BME280;48770;51.624;5.886;2023-03-26T04:44:50;100262.09;;;21.19;39.64
62710;BME280;48770;51.624;5.886;2023-03-26T04:47:19;100250.59;;;21.20;39.58
62710;BME280;48770;51.624;5.886;2023-03-26T04:49:45;100246.22;;;21.19;39.37
62710;BME280;48770;51.624;5.886;2023-03-26T04:52:12;100242.25;;;21.20;39.70
62710;BME280;48770;51.624;5.886;2023-03-26T04:54:38;100239.84;;;21.19;39.71
62710;BME280;48770;51.624;5.886;2023-03-26T04:57:13;100237.88;;;21.19;39.38
62710;BME280;48770;51.624;5.886;2023-03-26T04:59:39;100231.88;;;21.17;39.61
62710;BME280;48770;51.624;5.886;2023-03-26T05:02:06;100233.06;;;21.16;39.64
62710;BME280;48770;51.624;5.886;2023-03-26T05:04:32;100227.88;;;21.15;39.46
62710;BME280;48770;51.624;5.886;2023-03-26T05:07:01;100221.50;;;21.14;39.72
62710;BME280;48770;51.624;5.886;2023-03-26T05:09:27;100215.94;;;21.14;39.46
62710;BME280;48770;51.624;5.886;2023-03-26T05:11:52;100207.59;;;21.14;39.56
62710;BME280;48770;51.624;5.886;2023-03-26T05:14:18;100210.38;;;21.14;39.52
62710;BME280;48770;51.624;5.886;2023-03-26T05:16:45;100192.53;;;21.15;39.56
62710;BME280;48770;51.624;5.886;2023-03-26T05:19:11;100198.09;;;21.15;39.78
62710;BME280;48770;51.624;5.886;2023-03-26T05:21:37;100188.94;;;21.15;39.53
62710;BME280;48770;51.624;5.886;2023-03-26T05:24:02;100183.00;;;21.16;39.60
62710;BME280;48770;51.624;5.886;2023-03-26T05:26:29;100173.88;;;21.16;39.41
62710;BME280;48770;51.624;5.886;2023-03-26T05:28:55;100174.66;;;21.16;39.38
62710;BME280;48770;51.624;5.886;2023-03-26T05:31:21;100169.53;;;21.18;39.76
62710;BME280;48770;51.624;5.886;2023-03-26T05:33:46;100167.56;;;21.19;39.63
62710;BME280;48770;51.624;5.886;2023-03-26T05:36:14;100164.41;;;21.20;39.37
62710;BME280;48770;51.624;5.886;2023-03-26T05:38:43;100158.03;;;21.20;39.71
62710;BME280;48770;51.624;5.886;2023-03-26T05:41:14;100154.09;;;21.21;39.73
62710;BME280;48770;51.624;5.886;2023-03-26T05:43:40;100157.69;;;21.21;39.32
62710;BME280;48770;51.624;5.886;2023-03-26T05:46:06;100148.53;;;21.21;39.36
62710;BME280;48770;51.624;5.886;2023-03-26T05:48:31;100147.34;;;21.22;39.42
62710;BME280;48770;51.624;5.886;2023-03-26T05:50:57;100147.34;;;21.22;39.46
62710;BME280;48770;51.624;5.886;2023-03-26T05:53:25;100142.59;;;21.22;39.23
62710;BME280;48770;51.624;5.886;2023-03-26T05:55:51;100142.59;;;21.22;39.44
62710;BME280;48770;51.624;5.886;2023-03-26T05:58:27;100136.25;;;21.22;39.63
62710;BME280;48770;51.624;5.886;2023-03-26T06:00:58;100127.91;;;21.22;39.46
62710;BME280;48770;51.624;5.886;2023-03-26T06:03:24;100128.69;;;21.22;39.31
62710;BME280;48770;51.624;5.886;2023-03-26T06:05:49;100128.69;;;21.22;39.49
62710;BME280;48770;51.624;5.886;2023-03-26T06:08:15;100122.34;;;21.22;39.63
62710;BME280;48770;51.624;5.886;2023-03-26T06:10:40;100121.91;;;21.20;39.24
62710;BME280;48770;51.624;5.886;2023-03-26T06:13:06;100121.09;;;21.19;39.20
62710;BME280;48770;51.624;5.886;2023-03-26T06:15:31;100115.53;;;21.19;39.12
62710;BME280;48770;51.624;5.886;2023-03-26T06:17:56;100113.94;;;21.18;39.48
62710;BME280;48770;51.624;5.886;2023-03-26T06:20:22;100100.84;;;21.19;39.63
62710;BME280;48770;51.624;5.886;2023-03-26T06:22:47;100105.59;;;21.18;39.67
62710;BME280;48770;51.624;5.886;2023-03-26T06:25:12;100103.63;;;21.19;39.33
62710;BME280;48770;51.624;5.886;2023-03-26T06:27:38;100105.59;;;21.18;39.55
62710;BME280;48770;51.624;5.886;2023-03-26T06:30:03;100098.88;;;21.19;39.52
62710;BME280;48770;51.624;5.886;2023-03-26T06:32:29;100101.28;;;21.21;39.25
62710;BME280;48770;51.624;5.886;2023-03-26T06:34:55;100089.34;;;21.20;39.65
62710;BME280;48770;51.624;5.886;2023-03-26T06:37:20;100095.72;;;21.21;39.31
62710;BME280;48770;51.624;5.886;2023-03-26T06:39:45;100091.75;;;21.22;39.33
62710;BME280;48770;51.624;5.886;2023-03-26T06:42:10;100088.97;;;21.22;39.36
62710;BME280;48770;51.624;5.886;2023-03-26T06:44:36;100089.78;;;21.22;39.45
62710;BME280;48770;51.624;5.886;2023-03-26T06:47:01;100085.84;;;21.23;39.61
62710;BME280;48770;51.624;5.886;2023-03-26T06:49:27;100083.88;;;21.24;39.28
62710;BME280;48770;51.624;5.886;2023-03-26T06:51:52;100087.44;;;21.24;39.18
62710;BME280;48770;51.624;5.886;2023-03-26T06:54:17;100084.66;;;21.24;39.54
62710;BME280;48770;51.624;5.886;2023-03-26T06:56:42;100083.50;;;21.26;39.21
62710;BME280;48770;51.624;5.886;2023-03-26T06:59:08;100079.91;;;21.25;39.52
62710;BME280;48770;51.624;5.886;2023-03-26T07:01:34;100082.31;;;21.27;39.33
62710;BME280;48770;51.624;5.886;2023-03-26T07:03:59;100084.66;;;21.24;39.32
62710;BME280;48770;51.624;5.886;2023-03-26T07:06:25;100084.66;;;21.24;39.54
62710;BME280;48770;51.624;5.886;2023-03-26T07:08:50;100081.88;;;21.24;39.29
62710;BME280;48770;51.624;5.886;2023-03-26T07:11:15;100079.09;;;21.24;39.19
62710;BME280;48770;51.624;5.886;2023-03-26T07:13:43;100083.88;;;21.24;39.43
62710;BME280;48770;51.624;5.886;2023-03-26T07:16:09;100083.06;;;21.23;39.48
62710;BME280;48770;51.624;5.886;2023-03-26T07:18:35;100077.50;;;21.23;39.48
62710;BME280;48770;51.624;5.886;2023-03-26T07:21:00;100081.44;;;21.22;39.20
62710;BME280;48770;51.624;5.886;2023-03-26T07:23:26;100079.44;;;21.23;39.13
62710;BME280;48770;51.624;5.886;2023-03-26T07:25:51;100075.88;;;21.22;39.26
62710;BME280;48770;51.624;5.886;2023-03-26T07:28:38;100079.41;;;21.19;39.07
62710;BME280;48770;51.624;5.886;2023-03-26T07:31:18;100069.47;;;21.18;39.21
62710;BME280;48770;51.624;5.886;2023-03-26T07:33:52;100074.22;;;21.18;39.19
62710;BME280;48770;51.624;5.886;2023-03-26T07:36:30;100076.19;;;21.17;39.38
62710;BME280;48770;51.624;5.886;2023-03-26T07:42:05;100073.38;;;21.14;39.55
62710;BME280;48770;51.624;5.886;2023-03-26T07:44:50;100071.75;;;21.13;39.38
62710;BME280;48770;51.624;5.886;2023-03-26T07:47:26;100064.66;;;21.15;39.75
62710;BME280;48770;51.624;5.886;2023-03-26T07:49:54;100066.25;;;21.16;39.26
62710;BME280;48770;51.624;5.886;2023-03-26T07:52:20;100058.34;;;21.18;39.57
62710;BME280;48770;51.624;5.886;2023-03-26T07:54:45;100061.53;;;21.20;39.52
62710;BME280;48770;51.624;5.886;2023-03-26T07:57:24;100059.56;;;21.21;39.47
62710;BME280;48770;51.624;5.886;2023-03-26T08:00:00;100058.75;;;21.20;39.31
62710;BME280;48770;51.624;5.886;2023-03-26T08:05:42;100059.94;;;21.19;39.60
62710;BME280;48770;51.624;5.886;2023-03-26T08:08:23;100058.75;;;21.20;39.30
62710;BME280;48770;51.624;5.886;2023-03-26T08:11:21;100058.34;;;21.18;39.61
62710;BME280;48770;51.624;5.886;2023-03-26T08:19:33;100053.19;;;21.20;39.46
62710;BME280;48770;51.624;5.886;2023-03-26T08:22:26;100056.72;;;21.17;39.66
62710;BME280;48770;51.624;5.886;2023-03-26T08:25:17;100053.56;;;21.19;39.15
62710;BME280;48770;51.624;5.886;2023-03-26T08:28:02;100055.97;;;21.20;39.30
62710;BME280;48770;51.624;5.886;2023-03-26T08:30:28;100043.69;;;21.21;39.31
62710;BME280;48770;51.624;5.886;2023-03-26T08:33:12;100050.84;;;21.22;39.11
62710;BME280;48770;51.624;5.886;2023-03-26T08:35:38;100048.88;;;21.23;39.29
62710;BME280;48770;51.624;5.886;2023-03-26T08:38:11;100042.97;;;21.24;39.23
62710;BME280;48770;51.624;5.886;2023-03-26T08:43:38;100038.59;;;21.23;39.32
62710;BME280;48770;51.624;5.886;2023-03-26T08:49:28;100043.69;;;21.21;39.35
62710;BME280;48770;51.624;5.886;2023-03-26T08:52:19;100038.94;;;21.22;39.42
62710;BME280;48770;51.624;5.886;2023-03-26T08:58:36;100038.44;;;21.16;39.66
62710;BME280;48770;51.624;5.886;2023-03-26T09:01:28;100030.53;;;21.18;39.67
62710;BME280;48770;51.624;5.886;2023-03-26T09:04:35;100038.50;;;21.20;39.58
62710;BME280;48770;51.624;5.886;2023-03-26T09:19:01;100025.72;;;21.15;39.62
62710;BME280;48770;51.624;5.886;2023-03-26T09:27:39;100025.72;;;21.15;39.74
62710;BME280;48770;51.624;5.886;2023-03-26T09:36:29;100023.69;;;21.12;39.53
62710;BME280;48770;51.624;5.886;2023-03-26T09:39:16;100020.91;;;21.12;39.63
62710;BME280;48770;51.624;5.886;2023-03-26T09:55:32;100025.31;;;21.13;39.29
62710;BME280;48770;51.624;5.886;2023-03-26T10:00:52;100026.47;;;21.12;39.60
62710;BME280;48770;51.624;5.886;2023-03-26T10:03:32;100014.97;;;21.14;39.61
62710;BME280;48770;51.624;5.886;2023-03-26T10:06:13;100020.53;;;21.14;39.53
62710;BME280;48770;51.624;5.886;2023-03-26T10:09:09;100022.09;;;21.11;39.56
62710;BME280;48770;51.624;5.886;2023-03-26T10:11:57;100020.91;;;21.12;39.46
62710;BME280;48770;51.624;5.886;2023-03-26T10:14:33;100023.69;;;21.12;39.49
62710;BME280;48770;51.624;5.886;2023-03-26T10:17:32;100027.66;;;21.11;39.44
62710;BME280;48770;51.624;5.886;2023-03-26T10:23:00;100019.31;;;21.11;39.18
62710;BME280;48770;51.624;5.886;2023-03-26T10:31:03;100018.50;;;21.11;39.34
62710;BME280;48770;51.624;5.886;2023-03-26T10:33:46;100022.47;;;21.10;39.33
62710;BME280;48770;51.624;5.886;2023-03-26T10:52:59;100037.03;;;21.03;39.51
62710;BME280;48770;51.624;5.886;2023-03-26T10:55:43;100024.31;;;21.02;39.21
62710;BME280;48770;51.624;5.886;2023-03-26T10:58:21;100027.09;;;21.02;39.47
62710;BME280;48770;51.624;5.886;2023-03-26T11:01:02;100024.69;;;21.01;39.48
62710;BME280;48770;51.624;5.886;2023-03-26T11:03:42;100033.47;;;21.03;39.30
62710;BME280;48770;51.624;5.886;2023-03-26T11:06:22;100029.50;;;21.04;39.08
62710;BME280;48770;51.624;5.886;2023-03-26T11:14:31;100041.41;;;21.04;39.31
62710;BME280;48770;51.624;5.886;2023-03-26T11:19:50;100031.91;;;21.05;39.26
62710;BME280;48770;51.624;5.886;2023-03-26T11:22:49;100039.06;;;21.06;39.19
62710;BME280;48770;51.624;5.886;2023-03-26T11:28:39;100050.19;;;21.06;39.27
62710;BME280;48770;51.624;5.886;2023-03-26T11:31:18;100048.28;;;21.10;39.18
62710;BME280;48770;51.624;5.886;2023-03-26T11:33:49;100047.53;;;21.13;39.47
62710;BME280;48770;51.624;5.886;2023-03-26T11:36:20;100049.56;;;21.16;39.54
62710;BME280;48770;51.624;5.886;2023-03-26T11:38:49;100052.78;;;21.18;39.46
62710;BME280;48770;51.624;5.886;2023-03-26T11:41:17;100050.81;;;21.19;39.46
62710;BME280;48770;51.624;5.886;2023-03-26T11:43:49;100052.41;;;21.20;39.40
62710;BME280;48770;51.624;5.886;2023-03-26T11:46:18;100063.16;;;21.21;38.84
62710;BME280;48770;51.624;5.886;2023-03-26T11:48:47;100053.63;;;21.22;39.06
62710;BME280;48770;51.624;5.886;2023-03-26T11:51:35;100054.81;;;21.21;38.81
62710;BME280;48770;51.624;5.886;2023-03-26T11:54:02;100055.25;;;21.23;38.99
62710;BME280;48770;51.624;5.886;2023-03-26T11:56:30;100052.47;;;21.23;39.21
62710;BME280;48770;51.624;5.886;2023-03-26T12:04:15;100051.31;;;21.24;38.99
62710;BME280;48770;51.624;5.886;2023-03-26T12:06:57;100054.09;;;21.24;38.86
62710;BME280;48770;51.624;5.886;2023-03-26T12:09:29;100048.88;;;21.23;39.20
62710;BME280;48770;51.624;5.886;2023-03-26T12:12:00;100056.06;;;21.24;38.96
62710;BME280;48770;51.624;5.886;2023-03-26T12:14:29;100056.88;;;21.24;39.22
62710;BME280;48770;51.624;5.886;2023-03-26T12:17:07;100060.00;;;21.23;39.04
62710;BME280;48770;51.624;5.886;2023-03-26T12:19:41;100056.41;;;21.22;39.03
62710;BME280;48770;51.624;5.886;2023-03-26T12:22:31;100056.78;;;21.21;38.92
62710;BME280;48770;51.624;5.886;2023-03-26T12:25:18;100055.56;;;21.18;38.94
62710;BME280;48770;51.624;5.886;2023-03-26T12:27:48;100061.91;;;21.19;39.04
62710;BME280;48770;51.624;5.886;2023-03-26T12:30:21;100053.56;;;21.19;39.21
62710;BME280;48770;51.624;5.886;2023-03-26T12:32:48;100062.28;;;21.17;38.88
62710;BME280;48770;51.624;5.886;2023-03-26T12:35:24;100059.50;;;21.17;39.18
62710;BME280;48770;51.624;5.886;2023-03-26T12:37:52;100057.91;;;21.16;39.06
62710;BME280;48770;51.624;5.886;2023-03-26T12:40:30;100062.66;;;21.16;38.95
62710;BME280;48770;51.624;5.886;2023-03-26T12:43:05;100063.84;;;21.15;38.87
62710;BME280;48770;51.624;5.886;2023-03-26T12:45:47;100067.81;;;21.14;39.41
62710;BME280;48770;51.624;5.886;2023-03-26T12:48:15;100067.44;;;21.15;39.35
62710;BME280;48770;51.624;5.886;2023-03-26T12:53:45;100070.97;;;21.12;39.51
62710;BME280;48770;51.624;5.886;2023-03-26T12:56:21;100074.53;;;21.13;39.31
62710;BME280;48770;51.624;5.886;2023-03-26T13:01:52;100077.69;;;21.11;39.15
62710;BME280;48770;51.624;5.886;2023-03-26T13:13:07;100090.72;;;21.07;39.27
62710;BME280;48770;51.624;5.886;2023-03-26T13:15:37;100087.59;;;21.09;39.23
62710;BME280;48770;51.624;5.886;2023-03-26T13:20:48;100089.19;;;21.10;39.46
62710;BME280;48770;51.624;5.886;2023-03-26T13:29:48;100099.41;;;21.06;39.13
62710;BME280;48770;51.624;5.886;2023-03-26T13:32:42;100092.19;;;21.01;39.42
62710;BME280;48770;51.624;5.886;2023-03-26T13:35:36;100107.28;;;21.00;39.41
62710;BME280;48770;51.624;5.886;2023-03-26T13:38:12;100107.69;;;21.02;39.25
62710;BME280;48770;51.624;5.886;2023-03-26T13:41:08;100112.03;;;21.00;39.40
62710;BME280;48770;51.624;5.886;2023-03-26T13:43:50;100112.41;;;20.98;39.38
62710;BME280;48770;51.624;5.886;2023-03-26T13:46:37;100099.69;;;20.97;39.54
62710;BME280;48770;51.624;5.886;2023-03-26T13:49:12;100112.41;;;20.98;39.67
62710;BME280;48770;51.624;5.886;2023-03-26T13:51:49;100107.63;;;20.99;39.29
62710;BME280;48770;51.624;5.886;2023-03-26T13:54:21;100121.16;;;21.00;39.35
62710;BME280;48770;51.624;5.886;2023-03-26T13:56:53;100123.94;;;21.00;39.37
62710;BME280;48770;51.624;5.886;2023-03-26T13:59:37;100118.75;;;20.99;39.55
62710;BME280;48770;51.624;5.886;2023-03-26T14:02:35;100127.03;;;20.95;39.43
62710;BME280;48770;51.624;5.886;2023-03-26T14:05:10;100123.09;;;20.96;39.35
62710;BME280;48770;51.624;5.886;2023-03-26T14:10:14;100131.00;;;20.94;39.59
62710;BME280;48770;51.624;5.886;2023-03-26T14:12:46;100135.75;;;20.93;39.60
62710;BME280;48770;51.624;5.886;2023-03-26T14:15:28;100143.66;;;20.91;39.32
62710;BME280;48770;51.624;5.886;2023-03-26T14:18:34;100145.19;;;20.89;39.55
62710;BME280;48770;51.624;5.886;2023-03-26T14:26:56;100161.13;;;20.92;40.07
62710;BME280;48770;51.624;5.886;2023-03-26T14:29:30;100158.78;;;20.94;40.08
62710;BME280;48770;51.624;5.886;2023-03-26T14:32:14;100161.63;;;20.98;39.87
62710;BME280;48770;51.624;5.886;2023-03-26T14:34:56;100175.56;;;21.01;40.12
62710;BME280;48770;51.624;5.886;2023-03-26T14:38:05;100186.69;;;21.01;40.21
62710;BME280;48770;51.624;5.886;2023-03-26T14:46:36;100192.31;;;21.05;40.00
62710;BME280;48770;51.624;5.886;2023-03-26T14:54:44;100194.00;;;21.09;40.63
62710;BME280;48770;51.624;5.886;2023-03-26T15:00:30;100207.09;;;21.09;40.55
62710;BME280;48770;51.624;5.886;2023-03-26T15:27:56;100246.00;;;21.28;40.26
62710;BME280;48770;51.624;5.886;2023-03-26T15:39:48;100266.56;;;21.23;40.48
62710;BME280;48770;51.624;5.886;2023-03-26T15:42:51;100273.66;;;21.21;40.30
62710;BME280;48770;51.624;5.886;2023-03-26T15:45:28;100280.00;;;21.21;40.09
62710;BME280;48770;51.624;5.886;2023-03-26T15:53:14;100291.50;;;21.20;40.28
62710;BME280;48770;51.624;5.886;2023-03-26T15:58:59;100302.56;;;21.16;40.08
62710;BME280;48770;51.624;5.886;2023-03-26T16:04:49;100309.59;;;21.10;40.30
62710;BME280;48770;51.624;5.886;2023-03-26T16:07:44;100316.31;;;21.09;40.10
62710;BME280;48770;51.624;5.886;2023-03-26T16:10:17;100340.16;;;21.10;40.37
62710;BME280;48770;51.624;5.886;2023-03-26T16:12:53;100329.06;;;21.10;40.42
62710;BME280;48770;51.624;5.886;2023-03-26T16:20:52;100354.78;;;21.07;40.37
62710;BME280;48770;51.624;5.886;2023-03-26T16:23:28;100356.75;;;21.07;40.30
62710;BME280;48770;51.624;5.886;2023-03-26T16:28:34;100368.59;;;21.04;39.99
62710;BME280;48770;51.624;5.886;2023-03-26T16:33:48;100368.97;;;21.02;40.24
62710;BME280;48770;51.624;5.886;2023-03-26T16:36:21;100374.91;;;21.01;40.08
62710;BME280;48770;51.624;5.886;2023-03-26T16:39:15;100387.56;;;20.98;40.25
62710;BME280;48770;51.624;5.886;2023-03-26T16:47:19;100399.41;;;20.95;40.23
62710;BME280;48770;51.624;5.886;2023-03-26T16:49:53;100404.16;;;20.94;40.34
62710;BME280;48770;51.624;5.886;2023-03-26T16:55:36;100431.50;;;20.92;40.07
62710;BME280;48770;51.624;5.886;2023-03-26T16:58:26;100431.88;;;20.91;40.24
62710;BME280;48770;51.624;5.886;2023-03-26T17:03:57;100444.97;;;20.90;40.32
62710;BME280;48770;51.624;5.886;2023-03-26T17:06:47;100448.09;;;20.89;40.17
62710;BME280;48770;51.624;5.886;2023-03-26T17:09:32;100461.28;;;20.92;40.53